Time;durP1;ratioP1;P1;durP2;ratioP2;P2;SDS_P1;SDS_P2;PMS_P1;PMS_P2;Temp;Humidity;BMP_temperature;BMP_pressure;BME280_temperature;BME280_humidity;BME280_pressure;Samples;Min_cycle;Max_cycle;Signal;HPM_P1;HPM_P2
2021/12/07 00:01:36;;;;;;;23.98;13.40;;;;;;;;;;5035877;28;20087;-65
2021/12/07 00:04:03;;;;;;;20.60;12.27;;;;;;;;;;5052741;28;20487;-65
2021/12/07 00:06:29;;;;;;;25.27;14.38;;;;;;;;;;5053407;28;20033;-65
2021/12/07 00:08:56;;;;;;;24.83;14.02;;;;;;;;;;5053609;28;20036;-65
2021/12/07 00:11:24;;;;;;;23.17;13.77;;;;;;;;;;5052605;28;20787;-65
2021/12/07 00:13:50;;;;;;;21.33;12.75;;;;;;;;;;5053566;28;20476;-65
2021/12/07 00:16:18;;;;;;;23.65;13.95;;;;;;;;;;5053189;28;20076;-65
2021/12/07 00:18:45;;;;;;;24.15;14.27;;;;;;;;;;5052497;28;20149;-65
2021/12/07 00:21:11;;;;;;;22.77;14.05;;;;;;;;;;5053393;28;20053;-65
2021/12/07 00:23:38;;;;;;;22.48;14.25;;;;;;;;;;5053083;28;20083;-65
2021/12/07 00:26:05;;;;;;;20.90;13.02;;;;;;;;;;5052572;28;20526;-65
2021/12/07 00:28:31;;;;;;;23.45;13.98;;;;;;;;;;5053216;28;20040;-65
2021/12/07 00:31:08;;;;;;;22.05;13.77;;;;;;;;;;5051892;28;20464;-65
2021/12/07 00:33:42;;;;;;;21.75;13.32;;;;;;;;;;5052433;28;20045;-65
2021/12/07 00:36:08;;;;;;;25.05;14.38;;;;;;;;;;5052816;28;20044;-65
2021/12/07 00:38:34;;;;;;;26.05;14.75;;;;;;;;;;5052682;28;20044;-65
2021/12/07 00:41:02;;;;;;;20.75;13.25;;;;;;;;;;5052299;28;20472;-65
2021/12/07 00:43:29;;;;;;;23.10;13.57;;;;;;;;;;5052889;28;20117;-65
2021/12/07 00:45:58;;;;;;;23.80;13.20;;;;;;;;;;5035005;28;20123;-65
2021/12/07 00:48:24;;;;;;;25.92;14.63;;;;;;;;;;5052218;28;20045;-65
2021/12/07 00:50:50;;;;;;;23.83;13.68;;;;;;;;;;5052719;28;20045;-65
2021/12/07 00:53:17;;;;;;;25.92;14.38;;;;;;;;;;5034518;28;20040;-65
2021/12/07 00:55:45;;;;;;;22.25;14.15;;;;;;;;;;5052141;28;20041;-65
2021/12/07 00:58:21;;;;;;;22.08;13.75;;;;;;;;;;5052573;28;20192;-65
2021/12/07 01:00:49;;;;;;;22.27;13.63;;;;;;;;;;5034484;28;20068;-65
2021/12/07 01:03:15;;;;;;;21.92;13.63;;;;;;;;;;5051679;28;20094;-65
2021/12/07 01:05:47;;;;;;;23.85;13.68;;;;;;;;;;5052455;28;20036;-65
2021/12/07 01:09:07;;;;;;;22.67;13.35;;;;;;;;;;5052407;28;20045;-65
2021/12/07 01:24:47;;;;;;;18.67;11.75;;;;;;;;;;5031625;28;20395;-65
2021/12/07 01:27:15;;;;;;;21.17;13.43;;;;;;;;;;5032178;28;20042;-65
2021/12/07 01:29:43;;;;;;;19.85;13.25;;;;;;;;;;5032013;28;20049;-65
2021/12/07 01:40:24;;;;;;;17.85;11.48;;;;;;;;;;5031487;28;20544;-65
2021/12/07 01:43:29;;;;;;;20.05;13.10;;;;;;;;;;5013537;28;20124;-65
2021/12/07 01:51:17;;;;;;;19.60;12.25;;;;;;;;;;5031824;28;20099;-65
2021/12/07 01:59:33;;;;;;;19.63;12.43;;;;;;;;;;5031811;28;20038;-65
2021/12/07 02:02:00;;;;;;;20.13;12.18;;;;;;;;;;5030848;28;20060;-65
2021/12/07 02:04:26;;;;;;;19.55;11.50;;;;;;;;;;5013934;28;20124;-65
2021/12/07 02:06:53;;;;;;;19.60;12.73;;;;;;;;;;5031310;28;20066;-65
2021/12/07 02:09:19;;;;;;;20.23;12.45;;;;;;;;;;5031069;28;20041;-65
2021/12/07 02:11:48;;;;;;;18.83;11.70;;;;;;;;;;5031052;28;20065;-65
2021/12/07 02:14:18;;;;;;;19.85;12.48;;;;;;;;;;5031579;28;20086;-65
2021/12/07 02:16:48;;;;;;;19.70;12.50;;;;;;;;;;5030876;28;20072;-65
2021/12/07 02:19:15;;;;;;;21.73;13.07;;;;;;;;;;5013796;28;20042;-65
2021/12/07 02:21:41;;;;;;;21.92;13.30;;;;;;;;;;5031455;28;20076;-65
2021/12/07 02:24:07;;;;;;;21.98;13.73;;;;;;;;;;5046667;28;20059;-65
2021/12/07 02:26:33;;;;;;;22.42;13.02;;;;;;;;;;5051169;28;20475;-65
2021/12/07 02:28:59;;;;;;;21.20;13.27;;;;;;;;;;5051104;28;20040;-65
2021/12/07 02:31:25;;;;;;;21.58;13.57;;;;;;;;;;5050228;28;20048;-65
2021/12/07 02:33:52;;;;;;;21.88;13.23;;;;;;;;;;5051289;28;20495;-65
2021/12/07 02:36:18;;;;;;;22.23;13.77;;;;;;;;;;5051220;28;20087;-65
2021/12/07 02:38:44;;;;;;;22.15;13.57;;;;;;;;;;5050511;28;20041;-65
2021/12/07 02:41:10;;;;;;;21.73;13.38;;;;;;;;;;5033059;28;20041;-65
2021/12/07 02:43:36;;;;;;;23.58;14.68;;;;;;;;;;5051190;28;20530;-65
2021/12/07 02:46:02;;;;;;;23.15;14.35;;;;;;;;;;5050703;28;20518;-65
2021/12/07 02:48:28;;;;;;;22.17;13.38;;;;;;;;;;5051144;28;20036;-65
2021/12/07 02:50:54;;;;;;;23.02;13.88;;;;;;;;;;5051057;28;20102;-65
2021/12/07 02:53:24;;;;;;;22.77;13.57;;;;;;;;;;5050415;28;20460;-65
2021/12/07 02:55:50;;;;;;;21.27;13.32;;;;;;;;;;5054439;28;20055;-65
2021/12/07 02:58:18;;;;;;;20.25;12.75;;;;;;;;;;5054964;28;20032;-65
2021/12/07 03:00:51;;;;;;;21.67;13.77;;;;;;;;;;5036112;28;20045;-65
2021/12/07 03:03:17;;;;;;;19.88;12.15;;;;;;;;;;5054796;28;20044;-65
2021/12/07 03:06:01;;;;;;;21.98;13.15;;;;;;;;;;5054900;28;20110;-65
2021/12/07 03:27:48;;;;;;;21.25;11.88;;;;;;;;;;5034598;28;20045;-65
2021/12/07 03:30:14;;;;;;;21.92;13.50;;;;;;;;;;5015716;28;20087;-65
2021/12/07 03:32:40;;;;;;;19.45;12.25;;;;;;;;;;5034340;28;20643;-65
2021/12/07 03:35:07;;;;;;;21.40;13.57;;;;;;;;;;5034083;28;20069;-65
2021/12/07 03:37:33;;;;;;;19.60;12.18;;;;;;;;;;5033703;28;20041;-65
2021/12/07 03:39:59;;;;;;;19.75;11.88;;;;;;;;;;5034306;28;20088;-65
2021/12/07 03:42:25;;;;;;;20.13;11.57;;;;;;;;;;5034061;28;20077;-65
2021/12/07 03:44:51;;;;;;;20.95;12.73;;;;;;;;;;5033568;28;20051;-65
2021/12/07 03:47:17;;;;;;;21.67;13.48;;;;;;;;;;5034181;28;20091;-65
2021/12/07 03:49:43;;;;;;;17.38;10.98;;;;;;;;;;5034045;28;20136;-65
2021/12/07 03:52:09;;;;;;;17.83;11.63;;;;;;;;;;5033140;28;20566;-65
2021/12/07 03:54:35;;;;;;;19.40;11.65;;;;;;;;;;5033664;28;20041;-65
2021/12/07 03:57:01;;;;;;;19.65;11.40;;;;;;;;;;5033655;28;20053;-65
2021/12/07 03:59:27;;;;;;;17.80;11.65;;;;;;;;;;5033167;28;20049;-65
2021/12/07 04:01:54;;;;;;;19.15;11.25;;;;;;;;;;5033736;28;20060;-65
2021/12/07 04:04:20;;;;;;;20.50;11.98;;;;;;;;;;5033693;28;20041;-65
2021/12/07 04:06:47;;;;;;;21.23;12.30;;;;;;;;;;5032816;28;20099;-65
2021/12/07 04:09:13;;;;;;;19.98;11.20;;;;;;;;;;5033659;28;20392;-65
2021/12/07 04:11:39;;;;;;;18.73;10.93;;;;;;;;;;5033499;28;20050;-65
2021/12/07 04:14:06;;;;;;;16.90;10.05;;;;;;;;;;5032968;28;20044;-65
2021/12/07 04:16:33;;;;;;;18.92;11.35;;;;;;;;;;5033387;28;20045;-65
2021/12/07 04:19:00;;;;;;;17.05;10.32;;;;;;;;;;5033565;28;20046;-65
2021/12/07 04:21:26;;;;;;;20.50;11.10;;;;;;;;;;5032424;28;20125;-65
2021/12/07 04:23:52;;;;;;;17.83;10.93;;;;;;;;;;5032908;28;20654;-65
2021/12/07 04:26:18;;;;;;;17.77;10.25;;;;;;;;;;5042832;28;20120;-65
2021/12/07 04:28:44;;;;;;;18.92;11.05;;;;;;;;;;5052536;28;20045;-65
2021/12/07 04:31:12;;;;;;;16.25;10.35;;;;;;;;;;5034968;28;20050;-65
2021/12/07 04:33:38;;;;;;;19.13;10.85;;;;;;;;;;5053269;28;20059;-65
2021/12/07 04:36:05;;;;;;;18.23;9.45;;;;;;;;;;5052446;28;20045;-65
2021/12/07 04:38:31;;;;;;;17.20;10.48;;;;;;;;;;5053115;28;20083;-65
2021/12/07 04:40:57;;;;;;;19.95;10.43;;;;;;;;;;5034815;28;20049;-65
2021/12/07 04:43:23;;;;;;;18.55;10.70;;;;;;;;;;5052249;28;20045;-65
2021/12/07 04:59:05;;;;;;;18.65;9.57;;;;;;;;;;5052142;28;20090;-65
2021/12/07 05:01:33;;;;;;;22.55;9.45;;;;;;;;;;5052576;28;20040;-65
2021/12/07 05:04:03;;;;;;;18.58;9.55;;;;;;;;;;5034630;28;20141;-65
2021/12/07 05:06:32;;;;;;;18.13;9.55;;;;;;;;;;5051903;28;20095;-65
2021/12/07 05:09:06;;;;;;;16.23;9.18;;;;;;;;;;5052384;28;20055;-65
2021/12/07 05:12:03;;;;;;;16.02;8.90;;;;;;;;;;5052191;28;20052;-65
2021/12/07 05:14:32;;;;;;;15.98;8.60;;;;;;;;;;5051781;28;20037;-65
2021/12/07 05:17:16;;;;;;;19.08;8.93;;;;;;;;;;5051645;28;20045;-65
2021/12/07 05:39:12;;;;;;;17.83;8.20;;;;;;;;;;5051827;28;20041;-65
2021/12/07 05:41:38;;;;;;;20.65;9.05;;;;;;;;;;5051588;28;20049;-65
2021/12/07 05:44:05;;;;;;;19.75;9.18;;;;;;;;;;5050839;28;20103;-65
2021/12/07 05:46:31;;;;;;;17.40;9.40;;;;;;;;;;5051790;28;20099;-65
2021/12/07 05:48:57;;;;;;;21.27;9.38;;;;;;;;;;5033634;28;20052;-65
2021/12/07 05:51:23;;;;;;;16.40;9.15;;;;;;;;;;5050645;28;20088;-65
2021/12/07 05:53:49;;;;;;;20.75;8.88;;;;;;;;;;5051522;28;20037;-65
2021/12/07 05:56:15;;;;;;;21.65;8.98;;;;;;;;;;5051591;28;20040;-65
2021/12/07 05:58:41;;;;;;;15.38;8.38;;;;;;;;;;5050748;28;20087;-65
2021/12/07 06:01:07;;;;;;;20.63;8.57;;;;;;;;;;5051480;28;20483;-65
2021/12/07 06:03:34;;;;;;;17.95;9.20;;;;;;;;;;5051459;28;20464;-65
2021/12/07 06:06:03;;;;;;;17.27;9.48;;;;;;;;;;5032828;28;20057;-65
2021/12/07 06:08:29;;;;;;;21.27;8.63;;;;;;;;;;5051599;28;20051;-65
2021/12/07 06:10:55;;;;;;;15.98;8.23;;;;;;;;;;5051001;28;20390;-65
2021/12/07 06:13:21;;;;;;;15.40;8.13;;;;;;;;;;5050688;28;20040;-65
2021/12/07 06:15:48;;;;;;;19.50;9.15;;;;;;;;;;5051354;28;20111;-65
2021/12/07 06:18:14;;;;;;;16.20;7.88;;;;;;;;;;5051479;28;20111;-65
2021/12/07 06:20:41;;;;;;;18.85;9.05;;;;;;;;;;5033018;28;20040;-65
2021/12/07 06:23:08;;;;;;;22.77;8.63;;;;;;;;;;5050928;28;20480;-65
2021/12/07 06:25:35;;;;;;;21.10;9.02;;;;;;;;;;5051187;28;20391;-65
2021/12/07 06:28:00;;;;;;;19.63;8.35;;;;;;;;;;5050586;28;20068;-65
2021/12/07 06:30:27;;;;;;;19.00;9.18;;;;;;;;;;5054424;28;20515;-65
2021/12/07 06:32:53;;;;;;;20.95;9.27;;;;;;;;;;5055087;28;20036;-65
2021/12/07 06:35:19;;;;;;;18.67;9.32;;;;;;;;;;5054779;28;20041;-65
2021/12/07 06:37:45;;;;;;;20.38;9.07;;;;;;;;;;5055252;28;20418;-65
2021/12/07 06:40:12;;;;;;;20.05;9.70;;;;;;;;;;5055322;28;20131;-65
2021/12/07 06:42:38;;;;;;;22.45;9.40;;;;;;;;;;5054418;28;20045;-65
2021/12/07 06:45:06;;;;;;;21.90;8.98;;;;;;;;;;5055192;28;20067;-65
2021/12/07 06:47:32;;;;;;;18.88;8.25;;;;;;;;;;5055076;28;20664;-65
2021/12/07 06:49:58;;;;;;;23.13;8.77;;;;;;;;;;5054332;28;20041;-65
2021/12/07 06:52:24;;;;;;;19.05;8.77;;;;;;;;;;5053865;28;20037;-65
2021/12/07 06:54:50;;;;;;;23.23;8.98;;;;;;;;;;5055127;28;20044;-65
2021/12/07 06:57:16;;;;;;;17.63;8.77;;;;;;;;;;5053859;28;20132;-65
2021/12/07 06:59:42;;;;;;;19.95;8.52;;;;;;;;;;5054394;28;20461;-65
2021/12/07 07:02:09;;;;;;;19.70;9.55;;;;;;;;;;5054574;28;20040;-65
2021/12/07 07:04:35;;;;;;;20.05;9.95;;;;;;;;;;5054026;28;20052;-65
2021/12/07 07:07:01;;;;;;;20.05;9.05;;;;;;;;;;5054953;28;20041;-65
2021/12/07 07:09:27;;;;;;;19.50;9.45;;;;;;;;;;5054620;28;20048;-65
2021/12/07 07:11:53;;;;;;;24.60;11.50;;;;;;;;;;5053369;28;20036;-65
2021/12/07 07:14:19;;;;;;;20.73;10.75;;;;;;;;;;5054406;28;20039;-65
2021/12/07 07:16:45;;;;;;;21.80;10.23;;;;;;;;;;5053905;28;20124;-65
2021/12/07 07:19:11;;;;;;;22.17;9.55;;;;;;;;;;5053534;28;20037;-65
2021/12/07 07:21:37;;;;;;;22.02;9.93;;;;;;;;;;5053622;28;20040;-65
2021/12/07 07:24:03;;;;;;;21.20;9.88;;;;;;;;;;5052909;28;20103;-65
2021/12/07 07:26:30;;;;;;;18.95;9.05;;;;;;;;;;5052220;28;20056;-65
2021/12/07 07:28:56;;;;;;;26.67;10.05;;;;;;;;;;5052033;28;20040;-65
2021/12/07 07:31:22;;;;;;;22.00;9.30;;;;;;;;;;5052571;28;20090;-65
2021/12/07 07:33:48;;;;;;;22.35;9.02;;;;;;;;;;5051531;28;20446;-68
2021/12/07 07:36:14;;;;;;;25.05;9.57;;;;;;;;;;5022935;28;20029;-69
2021/12/07 07:38:40;;;;;;;18.83;9.05;;;;;;;;;;5043767;28;20034;-69
2021/12/07 07:41:06;;;;;;;22.30;9.63;;;;;;;;;;5049006;28;20048;-70
2021/12/07 07:43:33;;;;;;;17.73;8.82;;;;;;;;;;5052203;28;20041;-70
2021/12/07 07:45:59;;;;;;;24.85;9.50;;;;;;;;;;5045724;28;20041;-70
2021/12/07 07:48:25;;;;;;;21.75;8.23;;;;;;;;;;5050764;28;20048;-70
2021/12/07 07:50:51;;;;;;;21.98;9.25;;;;;;;;;;5034175;28;20044;-70
2021/12/07 07:53:18;;;;;;;19.55;8.82;;;;;;;;;;5051708;28;20037;-70
2021/12/07 07:55:44;;;;;;;19.98;9.18;;;;;;;;;;5030329;28;20037;-69
2021/12/07 07:58:11;;;;;;;23.00;9.15;;;;;;;;;;5024822;28;20112;-71
2021/12/07 08:00:38;;;;;;;22.05;9.43;;;;;;;;;;5029049;28;20458;-71
2021/12/07 08:03:05;;;;;;;28.13;8.82;;;;;;;;;;5033513;28;20095;-71
2021/12/07 08:05:31;;;;;;;26.10;9.27;;;;;;;;;;5015178;28;20131;-69
2021/12/07 08:07:57;;;;;;;26.00;8.02;;;;;;;;;;5033111;28;20044;-72
2021/12/07 08:10:28;;;;;;;20.65;8.60;;;;;;;;;;5033468;28;20480;-69
2021/12/07 08:12:55;;;;;;;21.23;8.00;;;;;;;;;;5045945;28;20127;-69
2021/12/07 08:15:21;;;;;;;17.73;7.35;;;;;;;;;;5050081;28;20041;-71
2021/12/07 08:17:47;;;;;;;21.20;7.60;;;;;;;;;;5031812;28;20084;-70
2021/12/07 08:20:13;;;;;;;15.10;7.85;;;;;;;;;;5032355;28;20083;-70
2021/12/07 08:22:39;;;;;;;19.73;7.18;;;;;;;;;;4996878;28;1054166;-69
2021/12/07 08:25:05;;;;;;;21.58;8.63;;;;;;;;;;5033432;28;20048;-68
2021/12/07 08:27:31;;;;;;;18.38;7.18;;;;;;;;;;5032029;28;20052;-70
2021/12/07 08:29:58;;;;;;;25.65;8.43;;;;;;;;;;5016677;28;20720;-70
2021/12/07 08:32:24;;;;;;;20.27;8.07;;;;;;;;;;5030601;28;20498;-68
2021/12/07 08:34:50;;;;;;;21.35;7.75;;;;;;;;;;5010819;28;20033;-65
2021/12/07 08:37:16;;;;;;;19.95;7.93;;;;;;;;;;5050598;28;20053;-69
2021/12/07 08:39:43;;;;;;;31.05;7.60;;;;;;;;;;5034498;28;20040;-69
2021/12/07 08:42:09;;;;;;;20.40;7.97;;;;;;;;;;5036700;28;20060;-71
2021/12/07 08:44:36;;;;;;;25.58;8.13;;;;;;;;;;5031111;28;20132;-71
2021/12/07 08:47:02;;;;;;;15.00;6.80;;;;;;;;;;5030756;28;20049;-72
2021/12/07 08:49:28;;;;;;;20.23;7.20;;;;;;;;;;5031960;28;20036;-72
2021/12/07 08:51:54;;;;;;;23.30;8.10;;;;;;;;;;5022091;28;20083;-72
2021/12/07 08:59:45;;;;;;;21.30;7.88;;;;;;;;;;5032991;28;20547;-67
2021/12/07 09:02:15;;;;;;;19.83;8.75;;;;;;;;;;5050843;28;20108;-67
2021/12/07 09:04:41;;;;;;;22.35;7.32;;;;;;;;;;5050802;28;20515;-67
2021/12/07 09:07:09;;;;;;;24.38;7.85;;;;;;;;;;5033172;28;20570;-67
2021/12/07 09:09:36;;;;;;;17.35;7.57;;;;;;;;;;5051377;28;20419;-69
2021/12/07 09:12:04;;;;;;;20.58;7.53;;;;;;;;;;5032745;28;20472;-72
2021/12/07 09:14:30;;;;;;;24.90;8.10;;;;;;;;;;5032752;28;20083;-72
2021/12/07 09:16:57;;;;;;;16.23;7.30;;;;;;;;;;5031959;28;20041;-72
2021/12/07 09:19:23;;;;;;;21.80;7.82;;;;;;;;;;5032788;28;20064;-73
2021/12/07 09:21:49;;;;;;;20.45;7.20;;;;;;;;;;5033091;28;20040;-76
2021/12/07 09:24:17;;;;;;;21.58;7.10;;;;;;;;;;5032857;28;20064;-75
2021/12/07 09:26:43;;;;;;;17.40;7.13;;;;;;;;;;5033070;28;20507;-67
2021/12/07 09:29:10;;;;;;;19.67;6.72;;;;;;;;;;5051216;28;20582;-76
2021/12/07 09:31:36;;;;;;;20.58;7.20;;;;;;;;;;5033447;28;20079;-71
2021/12/07 09:34:03;;;;;;;23.98;8.02;;;;;;;;;;5032240;28;20052;-71
2021/12/07 09:36:29;;;;;;;20.52;7.68;;;;;;;;;;5049970;28;20037;-69
2021/12/07 09:38:56;;;;;;;17.00;7.07;;;;;;;;;;5048007;28;20456;-71
2021/12/07 09:41:22;;;;;;;18.63;7.40;;;;;;;;;;5015392;28;20059;-70
2021/12/07 09:43:49;;;;;;;20.02;6.93;;;;;;;;;;5025282;28;20064;-70
2021/12/07 09:46:15;;;;;;;22.98;6.65;;;;;;;;;;5018256;28;20053;-70
2021/12/07 09:48:42;;;;;;;20.33;7.25;;;;;;;;;;5049156;28;20175;-75
2021/12/07 09:51:10;;;;;;;19.75;6.97;;;;;;;;;;5032310;28;20048;-73
2021/12/07 09:53:36;;;;;;;17.30;7.72;;;;;;;;;;5015968;28;20120;-73
2021/12/07 09:56:03;;;;;;;16.27;7.07;;;;;;;;;;5030981;28;20052;-72
2021/12/07 09:58:30;;;;;;;22.50;7.28;;;;;;;;;;5032338;28;20036;-72
2021/12/07 10:01:01;;;;;;;15.73;6.28;;;;;;;;;;5030776;28;20044;-73
2021/12/07 10:03:27;;;;;;;17.67;6.97;;;;;;;;;;5031617;28;20036;-75
2021/12/07 10:05:53;;;;;;;19.05;6.20;;;;;;;;;;5032175;28;20043;-76
2021/12/07 10:08:19;;;;;;;17.08;6.80;;;;;;;;;;5033391;28;20553;-69
2021/12/07 10:10:53;;;;;;;19.35;6.35;;;;;;;;;;5049684;28;20052;-73
2021/12/07 10:13:21;;;;;;;24.50;6.90;;;;;;;;;;5031880;28;20037;-74
2021/12/07 10:15:47;;;;;;;17.20;6.63;;;;;;;;;;5015114;28;20040;-72
2021/12/07 10:18:17;;;;;;;17.25;6.03;;;;;;;;;;5032575;28;20044;-73
2021/12/07 10:20:54;;;;;;;13.43;6.22;;;;;;;;;;5032169;28;20041;-70
2021/12/07 10:23:20;;;;;;;16.38;6.07;;;;;;;;;;5031846;28;20136;-72
2021/12/07 10:25:54;;;;;;;17.42;5.93;;;;;;;;;;5031887;28;20116;-72
2021/12/07 10:28:28;;;;;;;16.67;5.85;;;;;;;;;;5032154;28;20124;-75
2021/12/07 10:30:55;;;;;;;17.45;6.40;;;;;;;;;;5039810;28;20087;-73
2021/12/07 10:33:35;;;;;;;19.67;6.22;;;;;;;;;;5022697;28;20404;-72
2021/12/07 10:36:14;;;;;;;18.38;6.07;;;;;;;;;;5046722;28;20154;-70
2021/12/07 10:38:41;;;;;;;19.65;6.07;;;;;;;;;;5030966;28;20124;-71
2021/12/07 10:41:09;;;;;;;18.05;5.28;;;;;;;;;;5031177;28;20085;-70
2021/12/07 10:43:47;;;;;;;17.55;5.63;;;;;;;;;;5032220;28;20037;-68
2021/12/07 10:46:30;;;;;;;12.02;5.75;;;;;;;;;;5049536;28;20574;-68
2021/12/07 10:49:18;;;;;;;15.55;5.90;;;;;;;;;;5056278;28;20041;-74
2021/12/07 10:52:02;;;;;;;16.70;5.80;;;;;;;;;;5031704;28;20480;-73
2021/12/07 10:54:29;;;;;;;19.48;5.25;;;;;;;;;;5012307;28;20458;-73
2021/12/07 10:56:56;;;;;;;19.40;6.20;;;;;;;;;;5031540;28;20037;-72
2021/12/07 10:59:22;;;;;;;14.77;5.20;;;;;;;;;;5032103;28;20159;-70
2021/12/07 11:01:49;;;;;;;17.33;5.78;;;;;;;;;;5048609;28;20447;-70
2021/12/07 11:04:21;;;;;;;15.48;5.07;;;;;;;;;;5032006;28;20529;-71
2021/12/07 11:07:03;;;;;;;14.68;5.07;;;;;;;;;;5033540;28;20090;-70
2021/12/07 11:09:29;;;;;;;17.65;5.10;;;;;;;;;;5030161;28;20130;-69
2021/12/07 11:12:09;;;;;;;17.55;5.57;;;;;;;;;;5030454;28;20491;-73
2021/12/07 11:14:57;;;;;;;17.70;4.82;;;;;;;;;;5015199;28;20411;-73
2021/12/07 11:17:25;;;;;;;12.55;5.43;;;;;;;;;;5051783;28;20048;-71
2021/12/07 11:19:52;;;;;;;14.70;5.38;;;;;;;;;;5052984;28;20569;-70
2021/12/07 11:22:20;;;;;;;10.57;5.07;;;;;;;;;;5053364;28;20072;-72
2021/12/07 11:24:47;;;;;;;13.35;5.32;;;;;;;;;;5035826;28;20045;-68
2021/12/07 11:30:09;;;;;;;11.02;4.78;;;;;;;;;;5053168;28;20486;-68
2021/12/07 11:32:35;;;;;;;15.30;5.35;;;;;;;;;;5053020;28;20090;-68
2021/12/07 11:35:16;;;;;;;10.50;4.78;;;;;;;;;;5053478;28;20349;-69
2021/12/07 11:37:42;;;;;;;18.35;5.13;;;;;;;;;;5040382;28;20095;-69
2021/12/07 11:40:09;;;;;;;18.77;4.88;;;;;;;;;;5053446;28;20387;-69
2021/12/07 11:42:38;;;;;;;16.88;4.70;;;;;;;;;;5053269;28;20049;-69
2021/12/07 11:45:04;;;;;;;15.40;4.57;;;;;;;;;;5053289;28;20429;-69
2021/12/07 11:47:32;;;;;;;17.27;4.97;;;;;;;;;;5052295;28;20132;-68
2021/12/07 11:50:00;;;;;;;13.35;4.50;;;;;;;;;;5053336;28;20440;-70
2021/12/07 11:52:26;;;;;;;20.45;5.88;;;;;;;;;;5043771;28;20127;-72
2021/12/07 11:54:52;;;;;;;15.32;4.90;;;;;;;;;;5034426;28;20522;-72
2021/12/07 11:57:19;;;;;;;16.00;5.28;;;;;;;;;;5034918;28;20124;-70
2021/12/07 11:59:47;;;;;;;12.60;4.72;;;;;;;;;;5034161;28;20037;-71
2021/12/07 12:02:13;;;;;;;14.40;5.00;;;;;;;;;;5052089;28;20087;-71
2021/12/07 12:04:41;;;;;;;15.52;5.18;;;;;;;;;;5034619;28;20045;-70
2021/12/07 12:07:09;;;;;;;15.52;5.75;;;;;;;;;;5035074;28;20056;-68
2021/12/07 12:09:37;;;;;;;13.35;5.00;;;;;;;;;;5019658;28;20056;-70
2021/12/07 12:12:10;;;;;;;15.88;4.85;;;;;;;;;;5033970;28;20097;-70
2021/12/07 12:14:46;;;;;;;16.23;4.97;;;;;;;;;;5034521;28;20048;-70
2021/12/07 12:17:15;;;;;;;15.90;4.63;;;;;;;;;;5034484;28;20083;-72
2021/12/07 12:19:44;;;;;;;11.43;4.80;;;;;;;;;;5034381;28;20068;-73
2021/12/07 12:22:16;;;;;;;15.40;4.90;;;;;;;;;;5034365;28;20124;-72
2021/12/07 12:24:48;;;;;;;18.85;5.78;;;;;;;;;;5034430;28;20094;-70
2021/12/07 12:27:30;;;;;;;15.13;6.30;;;;;;;;;;5051197;28;20059;-70
2021/12/07 12:29:57;;;;;;;19.38;5.32;;;;;;;;;;5020488;28;20063;-71
2021/12/07 12:32:36;;;;;;;18.42;4.95;;;;;;;;;;5034265;28;20052;-68
2021/12/07 12:35:05;;;;;;;14.93;5.55;;;;;;;;;;5034471;28;20053;-71
2021/12/07 12:37:32;;;;;;;12.82;5.32;;;;;;;;;;5034024;28;20693;-69
2021/12/07 12:39:58;;;;;;;12.45;4.60;;;;;;;;;;5051499;28;20862;-71
2021/12/07 12:42:42;;;;;;;14.60;5.20;;;;;;;;;;5033583;28;20400;-71
2021/12/07 12:45:22;;;;;;;20.05;5.25;;;;;;;;;;5033128;28;20796;-72
2021/12/07 12:48:08;;;;;;;14.63;4.65;;;;;;;;;;5034297;28;20087;-71
2021/12/07 12:50:43;;;;;;;19.92;5.55;;;;;;;;;;5033383;28;20041;-72
2021/12/07 12:53:12;;;;;;;16.40;4.88;;;;;;;;;;5032947;28;20041;-69
2021/12/07 12:55:40;;;;;;;13.60;4.85;;;;;;;;;;5033987;28;20045;-73
2021/12/07 12:58:08;;;;;;;14.70;4.72;;;;;;;;;;5051759;28;20036;-72
2021/12/07 13:00:53;;;;;;;11.95;4.57;;;;;;;;;;5032367;28;20041;-71
2021/12/07 13:03:19;;;;;;;16.33;4.88;;;;;;;;;;5034005;28;20051;-70
2021/12/07 13:05:57;;;;;;;18.60;5.28;;;;;;;;;;5033941;28;20127;-71
2021/12/07 13:08:23;;;;;;;15.75;5.35;;;;;;;;;;5032953;28;20064;-72
2021/12/07 13:11:15;;;;;;;10.90;5.00;;;;;;;;;;5033130;28;20052;-72
2021/12/07 13:13:48;;;;;;;10.57;4.63;;;;;;;;;;5029914;28;20056;-72
2021/12/07 13:16:18;;;;;;;10.65;4.35;;;;;;;;;;5033162;28;20057;-72
2021/12/07 13:18:44;;;;;;;13.27;4.10;;;;;;;;;;5017226;28;20040;-71
2021/12/07 13:21:18;;;;;;;10.25;4.20;;;;;;;;;;5032490;28;20491;-71
2021/12/07 13:23:56;;;;;;;12.27;4.50;;;;;;;;;;5033283;28;20049;-71
2021/12/07 13:26:24;;;;;;;15.50;4.15;;;;;;;;;;5033814;28;20048;-71
2021/12/07 13:29:00;;;;;;;13.82;4.57;;;;;;;;;;5033077;28;20052;-71
2021/12/07 13:31:34;;;;;;;10.68;4.40;;;;;;;;;;5032600;28;20049;-71
2021/12/07 13:34:02;;;;;;;15.02;4.32;;;;;;;;;;5016738;28;20036;-72
2021/12/07 13:36:29;;;;;;;12.13;4.25;;;;;;;;;;5027674;28;20041;-71
2021/12/07 13:39:00;;;;;;;13.05;5.03;;;;;;;;;;5032863;28;20045;-72
2021/12/07 13:41:26;;;;;;;17.13;4.82;;;;;;;;;;5032261;28;20045;-70
2021/12/07 13:43:52;;;;;;;17.58;5.60;;;;;;;;;;5032659;28;20070;-70
2021/12/07 13:46:22;;;;;;;17.02;5.30;;;;;;;;;;5033054;28;20044;-71
2021/12/07 13:48:50;;;;;;;13.27;4.88;;;;;;;;;;5033243;28;20043;-72
2021/12/07 13:51:17;;;;;;;14.10;5.32;;;;;;;;;;5031226;28;20052;-72
2021/12/07 13:53:45;;;;;;;15.57;5.43;;;;;;;;;;5032685;28;20037;-71
2021/12/07 13:56:11;;;;;;;11.70;5.03;;;;;;;;;;5033251;28;20499;-72
2021/12/07 13:58:53;;;;;;;12.57;5.47;;;;;;;;;;5032010;28;20079;-71
2021/12/07 14:01:19;;;;;;;15.88;6.15;;;;;;;;;;5032475;28;20122;-72
2021/12/07 14:03:46;;;;;;;16.65;6.40;;;;;;;;;;5032712;28;20033;-71
2021/12/07 14:06:12;;;;;;;12.93;5.40;;;;;;;;;;5032513;28;20047;-72
2021/12/07 14:08:39;;;;;;;17.45;6.28;;;;;;;;;;5032602;28;20043;-71
2021/12/07 14:11:05;;;;;;;23.05;6.90;;;;;;;;;;5031864;28;20463;-72
2021/12/07 14:13:31;;;;;;;14.88;6.05;;;;;;;;;;5015799;28;20087;-72
2021/12/07 14:15:57;;;;;;;15.23;6.45;;;;;;;;;;5032327;28;20052;-70
2021/12/07 14:18:24;;;;;;;17.67;6.97;;;;;;;;;;5032394;28;20040;-70
2021/12/07 14:20:54;;;;;;;17.95;6.75;;;;;;;;;;5049288;28;20048;-69
2021/12/07 14:23:31;;;;;;;18.23;6.78;;;;;;;;;;5050500;28;20061;-69
2021/12/07 14:25:59;;;;;;;18.95;7.03;;;;;;;;;;5050862;28;20048;-71
2021/12/07 14:28:43;;;;;;;24.45;6.85;;;;;;;;;;5049901;28;20033;-68
2021/12/07 14:31:15;;;;;;;16.33;6.93;;;;;;;;;;5031910;28;20064;-71
2021/12/07 14:33:49;;;;;;;12.63;6.50;;;;;;;;;;5050425;28;20040;-71
2021/12/07 14:36:26;;;;;;;17.45;6.75;;;;;;;;;;5049608;28;20040;-71
2021/12/07 14:38:53;;;;;;;23.33;7.05;;;;;;;;;;5041885;28;20041;-71
2021/12/07 14:41:20;;;;;;;16.65;7.07;;;;;;;;;;5049724;28;20123;-72
2021/12/07 14:43:47;;;;;;;18.92;7.40;;;;;;;;;;5050277;28;20041;-71
2021/12/07 14:46:14;;;;;;;18.38;7.30;;;;;;;;;;5050300;28;20040;-70
2021/12/07 14:48:41;;;;;;;19.25;8.98;;;;;;;;;;5031951;28;20057;-69
2021/12/07 14:51:11;;;;;;;19.27;8.38;;;;;;;;;;5033179;28;20128;-69
2021/12/07 14:53:40;;;;;;;21.15;8.18;;;;;;;;;;5036169;28;20045;-69
2021/12/07 14:56:07;;;;;;;20.85;10.05;;;;;;;;;;5054275;28;20037;-73
2021/12/07 14:58:34;;;;;;;19.55;8.38;;;;;;;;;;5035394;28;20037;-70
2021/12/07 15:01:01;;;;;;;16.23;8.55;;;;;;;;;;5019266;28;20529;-70
2021/12/07 15:03:36;;;;;;;22.45;8.65;;;;;;;;;;5054219;28;20128;-70
2021/12/07 15:06:02;;;;;;;21.15;8.32;;;;;;;;;;5018675;28;20123;-69
2021/12/07 15:08:28;;;;;;;20.70;8.65;;;;;;;;;;5035661;28;20058;-69
2021/12/07 15:10:56;;;;;;;22.90;7.97;;;;;;;;;;5034976;28;20407;-70
2021/12/07 15:13:22;;;;;;;17.92;7.90;;;;;;;;;;5034810;28;20048;-71
2021/12/07 15:15:49;;;;;;;20.50;8.57;;;;;;;;;;5036196;28;20049;-71
2021/12/07 15:18:15;;;;;;;22.50;8.30;;;;;;;;;;5035496;28;20068;-69
2021/12/07 15:20:41;;;;;;;17.77;7.78;;;;;;;;;;5034747;28;20561;-70
2021/12/07 15:23:07;;;;;;;20.92;8.95;;;;;;;;;;5035338;28;20052;-71
2021/12/07 15:25:33;;;;;;;20.23;7.75;;;;;;;;;;5035807;28;20052;-70
2021/12/07 15:27:59;;;;;;;17.90;7.30;;;;;;;;;;5053035;28;20472;-70
2021/12/07 15:30:26;;;;;;;20.92;7.95;;;;;;;;;;5021564;28;20033;-70
2021/12/07 15:32:53;;;;;;;21.40;7.25;;;;;;;;;;5035086;28;20049;-69
2021/12/07 15:35:20;;;;;;;19.58;7.90;;;;;;;;;;5053048;28;20041;-69
2021/12/07 15:37:46;;;;;;;16.48;7.90;;;;;;;;;;5053483;28;20033;-69
2021/12/07 15:40:12;;;;;;;19.15;7.78;;;;;;;;;;5053350;28;20403;-68
2021/12/07 15:42:38;;;;;;;20.23;8.35;;;;;;;;;;5042680;28;20044;-69
2021/12/07 15:45:06;;;;;;;17.55;8.10;;;;;;;;;;5033517;28;20443;-70
2021/12/07 15:47:34;;;;;;;17.50;8.73;;;;;;;;;;5018296;28;20040;-72
2021/12/07 15:50:01;;;;;;;18.75;7.70;;;;;;;;;;5034265;28;20056;-70
2021/12/07 15:52:32;;;;;;;20.10;8.18;;;;;;;;;;5034598;28;20472;-70
2021/12/07 15:54:59;;;;;;;15.90;8.07;;;;;;;;;;5018779;28;20048;-70
2021/12/07 15:57:26;;;;;;;19.55;7.22;;;;;;;;;;5052555;28;20044;-70
2021/12/07 15:59:57;;;;;;;15.75;6.38;;;;;;;;;;5035275;28;20111;-70
2021/12/07 16:02:24;;;;;;;18.30;6.95;;;;;;;;;;5034580;28;20041;-70
2021/12/07 16:04:50;;;;;;;23.67;7.72;;;;;;;;;;5052876;28;20045;-70
2021/12/07 16:07:20;;;;;;;19.13;7.00;;;;;;;;;;5035723;28;20106;-70